16:07
Airports
Links
Donate
Help keep this website running!
PayPal
Bitcoin
METAR
SBRJ 191600Z 15006KT CAVOK 31/18 Q1012
Current Weather Conditions at SBRJ
VFR 16:00:00 19-10-17
Altimeter:29.88 hg
Temp:31.0°c 88°f
Dew point:18.0°c 64°f
Wind:6 knots, 6.9 mph, 3 m/s, from 150°
Visibility:6.21 statute miles
(CAVOK)
Past METAR reports
VFR 15:15:00 19-10-17
Altimeter:29.88 hg
Temp:33.0°c 91°f
Dew point:17.0°c 63°f
Wind:4 knots, 4.6 mph, 2 m/s, from 160°
Visibility:6.21 statute miles
(CAVOK)
SBRJ 191515Z 16004KT CAVOK 33/17 Q1012
VFR 15:00:00 19-10-17
Altimeter:29.91 hg
Temp:34.0°c 93°f
Dew point:15.0°c 59°f
Wind:3 knots, 3.5 mph, 2 m/s, from 30°
Visibility:6.21 statute miles
(CAVOK)
SBRJ 191500Z 03003KT CAVOK 34/15 Q1013
VFR 14:00:00 19-10-17
Altimeter:29.91 hg
Temp:35.0°c 95°f
Dew point:15.0°c 59°f
Wind:6 knots, 6.9 mph, 3 m/s, from 320°
Visibility:6.21 statute miles
(CAVOK)
SBRJ 191400Z 32006KT CAVOK 35/15 Q1013
VFR 13:00:00 19-10-17
Altimeter:29.94 hg
Temp:33.0°c 91°f
Dew point:16.0°c 61°f
Wind:6 knots, 6.9 mph, 3 m/s, from 340°
Visibility:6.21 statute miles
(CAVOK)
SBRJ 191300Z 34006KT CAVOK 33/16 Q1014
VFR 12:00:00 19-10-17
Altimeter:29.94 hg
Temp:29.0°c 84°f
Dew point:18.0°c 64°f
Wind:6 knots, 6.9 mph, 3 m/s, from 30°
Visibility:6.21 statute miles
(CAVOK)
SBRJ 191200Z 03006KT CAVOK 29/18 Q1014
VFR 11:00:00 19-10-17
Altimeter:29.94 hg
Temp:28.0°c 82°f
Dew point:20.0°c 68°f
Wind:6 knots, 6.9 mph, 3 m/s, from 340°
Visibility:6.21 statute miles
(CAVOK)
SBRJ 191100Z 34006KT CAVOK 28/20 Q1014
TAF
TAF SBRJ 190730Z 1912/1924 35005KT CAVOK TX33/1917Z TN26/1924Z BECMG 1912/1913 14010KT BECMG 1915/1917 17015KT BECMG 1921/1923 10010KT RMK PGS
Forecast at SBRJ
BECMG 12:00 19-10-17 to 15:00 19-10-17
Wind:10 Knots from 140°
Visibility:6.21 statute miles
NSC
12:00 19-10-17 to 00:00 20-10-17
Wind:5 Knots from 350°
Visibility:6.21 statute miles
NSC
BECMG 15:00 19-10-17 to 21:00 19-10-17
Wind:15 Knots from 170°
Visibility:6.21 statute miles
NSC
BECMG 21:00 19-10-17 to 00:00 20-10-17
Wind:10 Knots from 100°
Visibility:6.21 statute miles
NSC